Time;durP1;ratioP1;P1;durP2;ratioP2;P2;SDS_P1;SDS_P2;PMS_P1;PMS_P2;Temp;Humidity;BMP_temperature;BMP_pressure;BME280_temperature;BME280_humidity;BME280_pressure;Samples;Min_cycle;Max_cycle;Signal;HPM_P1;HPM_P2
2022/08/14 00:02:03;;;;;;;0.25;0.25;;;13.60;99.90;;;;;;5074924;28;20020;-76
2022/08/14 00:04:33;;;;;;;0.30;0.30;;;13.60;99.90;;;;;;5074998;28;20035;-75
2022/08/14 00:06:59;;;;;;;0.32;0.32;;;13.60;99.90;;;;;;5075185;28;20024;-78
2022/08/14 00:09:25;;;;;;;0.40;0.40;;;13.60;99.90;;;;;;5074298;28;20461;-75
2022/08/14 00:11:51;;;;;;;0.20;0.20;;;13.60;99.90;;;;;;5074800;28;20112;-74
2022/08/14 00:14:17;;;;;;;0.28;0.28;;;13.60;99.90;;;;;;5074633;28;20465;-74
2022/08/14 00:16:42;;;;;;;0.40;0.40;;;13.60;99.90;;;;;;5074414;28;20020;-74
2022/08/14 00:19:09;;;;;;;0.45;0.45;;;13.50;99.90;;;;;;5074460;28;20074;-74
2022/08/14 00:21:35;;;;;;;0.30;0.30;;;13.50;99.90;;;;;;5074469;28;20116;-74
2022/08/14 00:24:03;;;;;;;0.38;0.22;;;13.50;99.90;;;;;;5074437;28;20021;-74
2022/08/14 00:26:29;;;;;;;0.40;0.40;;;13.50;99.90;;;;;;5073443;28;20461;-77
2022/08/14 00:28:55;;;;;;;0.30;0.30;;;13.50;99.90;;;;;;5074603;28;20092;-75
2022/08/14 00:31:22;;;;;;;0.20;0.20;;;13.40;99.90;;;;;;5074427;28;20524;-77
2022/08/14 00:33:48;;;;;;;0.40;0.40;;;13.40;99.90;;;;;;5074336;28;20016;-77
2022/08/14 00:36:14;;;;;;;0.75;0.43;;;13.40;99.90;;;;;;5074386;28;20161;-74
2022/08/14 00:38:39;;;;;;;0.17;0.17;;;13.30;99.90;;;;;;5074192;28;20484;-75
2022/08/14 00:41:07;;;;;;;0.70;0.70;;;13.30;99.90;;;;;;5074272;28;20531;-76
2022/08/14 00:43:34;;;;;;;2.20;0.68;;;13.30;99.90;;;;;;5074249;28;20017;-77
2022/08/14 00:46:10;;;;;;;0.50;0.40;;;13.40;99.90;;;;;;5074046;28;20538;-74
2022/08/14 00:48:36;;;;;;;0.32;0.32;;;13.40;99.90;;;;;;5074184;28;20029;-75
2022/08/14 00:51:05;;;;;;;0.55;0.55;;;13.40;99.90;;;;;;5073941;28;20554;-76
2022/08/14 00:53:31;;;;;;;0.35;0.35;;;13.30;99.90;;;;;;5094899;28;20516;-74
2022/08/14 00:55:57;;;;;;;0.60;0.60;;;13.30;99.90;;;;;;5114318;28;20020;-74
2022/08/14 00:58:29;;;;;;;0.30;0.30;;;13.30;99.90;;;;;;5114406;28;20104;-74
2022/08/14 01:00:56;;;;;;;14.30;0.55;;;13.20;99.90;;;;;;5114366;28;20028;-74
2022/08/14 01:03:23;;;;;;;0.50;0.50;;;13.20;99.90;;;;;;5114422;28;20028;-74
2022/08/14 01:05:50;;;;;;;0.45;0.43;;;13.10;99.90;;;;;;5114373;28;20507;-74
2022/08/14 01:08:28;;;;;;;0.52;0.52;;;13.00;99.90;;;;;;5114303;28;20027;-74
2022/08/14 01:10:55;;;;;;;0.30;0.30;;;12.90;99.90;;;;;;5114222;28;20383;-77
2022/08/14 01:13:28;;;;;;;0.90;0.90;;;12.90;99.90;;;;;;5114330;28;20024;-78
2022/08/14 01:16:00;;;;;;;0.40;0.40;;;13.00;99.90;;;;;;5114357;28;20020;-76
2022/08/14 01:21:15;;;;;;;0.45;0.45;;;12.90;99.90;;;;;;5114075;28;20027;-76
2022/08/14 01:23:52;;;;;;;0.45;0.45;;;12.80;99.90;;;;;;5114234;28;20019;-78
2022/08/14 01:26:22;;;;;;;0.25;0.25;;;12.70;99.90;;;;;;5114191;28;20024;-77
2022/08/14 01:28:50;;;;;;;0.63;0.63;;;12.70;99.90;;;;;;5114153;28;20042;-77
2022/08/14 01:31:17;;;;;;;1.27;1.17;;;12.80;99.90;;;;;;5113950;28;20031;-75
2022/08/14 01:33:47;;;;;;;0.25;0.25;;;12.70;99.90;;;;;;5113966;28;20084;-74
2022/08/14 01:36:15;;;;;;;0.43;0.43;;;12.60;99.90;;;;;;5114034;28;20019;-75
2022/08/14 01:38:44;;;;;;;1.13;0.43;;;12.60;99.90;;;;;;5113947;28;20032;-76
2022/08/14 01:41:12;;;;;;;0.28;0.28;;;12.60;99.90;;;;;;5113970;28;20050;-74
2022/08/14 01:44:00;;;;;;;0.47;0.45;;;12.50;99.90;;;;;;5113987;28;20029;-77
2022/08/14 01:46:29;;;;;;;0.52;0.52;;;12.60;99.90;;;;;;5113952;28;20051;-76
2022/08/14 01:48:56;;;;;;;1.45;1.05;;;12.60;99.90;;;;;;5113935;28;20016;-76
2022/08/14 01:51:25;;;;;;;0.60;0.50;;;12.60;99.90;;;;;;5113668;28;20028;-77
2022/08/14 01:53:57;;;;;;;0.80;0.52;;;12.60;99.90;;;;;;5113412;28;20039;-74
2022/08/14 01:56:36;;;;;;;0.40;0.40;;;12.50;99.90;;;;;;5113917;28;20027;-74
2022/08/14 01:59:08;;;;;;;0.50;0.50;;;12.50;99.90;;;;;;5095427;28;20467;-76
2022/08/14 02:01:36;;;;;;;1.60;1.13;;;12.50;99.90;;;;;;5113704;28;20027;-76
2022/08/14 02:04:04;;;;;;;0.30;0.30;;;12.50;99.90;;;;;;5095501;28;20028;-76
2022/08/14 02:06:30;;;;;;;0.50;0.50;;;12.50;99.90;;;;;;5113760;28;20019;-76
2022/08/14 02:08:56;;;;;;;1.65;0.50;;;12.60;99.90;;;;;;5113636;28;20486;-75
2022/08/14 02:11:24;;;;;;;1.15;1.05;;;12.50;99.90;;;;;;5095215;28;20582;-77
2022/08/14 02:14:03;;;;;;;2.28;0.52;;;12.50;99.90;;;;;;5113537;28;20076;-75
2022/08/14 02:16:32;;;;;;;2.83;0.73;;;12.40;99.90;;;;;;5113700;28;20131;-75
2022/08/14 02:19:01;;;;;;;0.32;0.32;;;12.40;99.90;;;;;;5095440;28;20028;-74
2022/08/14 02:21:31;;;;;;;1.08;0.63;;;12.40;99.90;;;;;;5113594;28;20020;-75
2022/08/14 02:24:00;;;;;;;2.47;0.50;;;12.30;99.90;;;;;;5113744;28;20024;-73
2022/08/14 02:26:31;;;;;;;0.80;0.57;;;12.20;99.90;;;;;;5113582;28;20089;-75
2022/08/14 02:29:23;;;;;;;0.30;0.30;;;12.20;99.90;;;;;;5113505;28;20030;-77
2022/08/14 02:31:52;;;;;;;0.82;0.52;;;12.10;99.90;;;;;;5113384;28;20039;-76
2022/08/14 02:34:31;;;;;;;0.63;0.63;;;12.00;99.90;;;;;;5116518;28;20020;-76
2022/08/14 02:37:08;;;;;;;0.45;0.43;;;12.00;99.90;;;;;;5117260;28;20027;-76
2022/08/14 02:39:39;;;;;;;0.65;0.60;;;12.00;99.90;;;;;;5117117;28;20034;-74
2022/08/14 02:42:11;;;;;;;0.43;0.43;;;12.00;99.90;;;;;;5117071;28;20026;-74
2022/08/14 02:44:38;;;;;;;0.57;0.57;;;12.00;99.90;;;;;;5099089;28;20051;-74
2022/08/14 02:47:04;;;;;;;0.47;0.47;;;12.00;99.90;;;;;;5116860;28;20022;-76
2022/08/14 02:49:30;;;;;;;1.50;0.70;;;12.10;99.90;;;;;;5116836;28;20024;-75
2022/08/14 02:51:57;;;;;;;0.55;0.55;;;12.10;99.90;;;;;;5116588;28;20043;-76
2022/08/14 02:54:25;;;;;;;1.02;0.35;;;12.10;99.90;;;;;;5116709;28;20036;-75
2022/08/14 02:56:55;;;;;;;3.20;0.95;;;12.00;99.90;;;;;;5117059;28;20027;-75
2022/08/14 02:59:27;;;;;;;0.38;0.38;;;12.00;99.90;;;;;;5116733;28;20111;-76
2022/08/14 03:01:53;;;;;;;0.60;0.50;;;11.90;99.90;;;;;;5116609;28;20022;-74
2022/08/14 03:04:18;;;;;;;4.40;0.80;;;11.80;99.90;;;;;;5116485;28;20024;-74
2022/08/14 03:06:45;;;;;;;0.82;0.82;;;11.80;99.90;;;;;;5116520;28;20031;-75
2022/08/14 03:09:11;;;;;;;1.00;1.00;;;11.80;99.90;;;;;;5116346;28;20425;-75
2022/08/14 03:11:38;;;;;;;0.47;0.43;;;11.80;99.90;;;;;;5116366;28;20039;-74
2022/08/14 03:14:04;;;;;;;0.30;0.30;;;11.80;99.90;;;;;;5116591;28;20019;-75
2022/08/14 03:16:34;;;;;;;0.60;0.60;;;11.80;99.90;;;;;;5116384;28;20072;-74
2022/08/14 03:19:02;;;;;;;0.47;0.47;;;11.90;99.90;;;;;;5117096;28;20047;-75
2022/08/14 03:21:30;;;;;;;0.80;0.68;;;11.80;99.90;;;;;;5118229;28;20016;-75
2022/08/14 03:24:15;;;;;;;2.30;0.50;;;11.80;99.90;;;;;;5100717;28;20023;-75
2022/08/14 03:26:44;;;;;;;1.05;0.47;;;11.70;99.90;;;;;;5116271;28;20081;-77
2022/08/14 03:29:13;;;;;;;0.43;0.43;;;11.60;99.90;;;;;;5116066;28;20027;-75
2022/08/14 03:31:39;;;;;;;0.52;0.52;;;11.60;99.90;;;;;;5115970;28;20472;-77
2022/08/14 03:34:10;;;;;;;0.88;0.88;;;11.50;99.90;;;;;;5116259;28;20043;-76
2022/08/14 03:36:39;;;;;;;2.75;0.90;;;11.50;99.90;;;;;;5116097;28;20536;-77
2022/08/14 03:39:07;;;;;;;1.55;0.43;;;11.50;99.90;;;;;;5116035;28;20027;-77
2022/08/14 03:41:34;;;;;;;0.28;0.28;;;11.40;99.90;;;;;;5115950;28;20031;-74
2022/08/14 03:44:02;;;;;;;5.75;0.77;;;11.40;99.90;;;;;;5115373;28;20019;-74
2022/08/14 03:46:31;;;;;;;0.77;0.75;;;11.40;99.90;;;;;;5115308;28;20033;-74
2022/08/14 03:49:01;;;;;;;0.52;0.52;;;11.40;99.90;;;;;;5115635;28;20384;-74
2022/08/14 03:51:28;;;;;;;1.73;0.82;;;11.30;99.90;;;;;;5115664;28;20476;-75
2022/08/14 03:53:56;;;;;;;2.15;0.60;;;11.30;99.90;;;;;;5115606;28;20043;-74
2022/08/14 03:56:24;;;;;;;0.47;0.32;;;11.30;99.90;;;;;;5115734;28;20024;-77
2022/08/14 03:58:52;;;;;;;0.52;0.52;;;11.30;99.90;;;;;;5115816;28;20019;-78
2022/08/14 04:01:22;;;;;;;0.60;0.60;;;11.20;99.90;;;;;;5115500;28;20038;-77
2022/08/14 04:03:49;;;;;;;1.65;0.73;;;11.20;99.90;;;;;;5115590;28;20016;-77
2022/08/14 04:06:16;;;;;;;0.77;0.77;;;11.20;99.90;;;;;;5115282;28;20024;-77
2022/08/14 04:08:42;;;;;;;0.88;0.80;;;11.20;99.90;;;;;;5115321;28;20019;-77
2022/08/14 04:11:09;;;;;;;1.23;0.82;;;11.20;99.90;;;;;;5115282;28;20032;-75
2022/08/14 04:13:38;;;;;;;0.98;0.50;;;11.20;99.90;;;;;;5115274;28;20016;-75
2022/08/14 04:16:06;;;;;;;0.90;0.57;;;11.20;99.90;;;;;;5115311;28;20016;-77
2022/08/14 04:18:32;;;;;;;3.33;1.55;;;11.30;99.90;;;;;;5115058;28;20042;-77
2022/08/14 04:20:58;;;;;;;1.08;1.00;;;11.30;99.90;;;;;;5115088;28;20531;-76
2022/08/14 04:23:25;;;;;;;0.57;0.57;;;11.30;99.90;;;;;;5115025;28;20043;-76
2022/08/14 04:25:54;;;;;;;0.85;0.85;;;11.40;99.90;;;;;;5114886;28;20027;-75
2022/08/14 04:28:21;;;;;;;0.45;0.40;;;11.30;99.90;;;;;;5115003;28;20030;-75
2022/08/14 04:30:47;;;;;;;0.50;0.50;;;11.30;99.90;;;;;;5114804;28;20023;-74
2022/08/14 04:33:13;;;;;;;1.13;1.02;;;11.20;99.90;;;;;;5096721;28;20023;-74
2022/08/14 04:35:39;;;;;;;0.40;0.40;;;11.20;99.90;;;;;;5115001;28;20016;-74
2022/08/14 04:43:35;;;;;;;1.35;1.30;;;11.40;99.90;;;;;;5114916;28;20570;-78
2022/08/14 04:46:12;;;;;;;0.60;0.60;;;11.40;99.90;;;;;;5121035;28;20051;-80
2022/08/14 04:48:38;;;;;;;2.08;1.15;;;11.50;99.90;;;;;;5096601;28;20042;-78
2022/08/14 04:51:06;;;;;;;0.85;0.40;;;11.50;99.90;;;;;;5115316;28;20020;-79
2022/08/14 04:53:33;;;;;;;0.65;0.65;;;11.50;99.90;;;;;;5114600;28;20051;-78
2022/08/14 04:55:59;;;;;;;1.05;0.63;;;11.50;99.90;;;;;;5096565;28;20028;-78
2022/08/14 04:58:29;;;;;;;0.73;0.73;;;11.50;99.90;;;;;;5114897;28;20123;-78
2022/08/14 05:00:56;;;;;;;3.90;1.05;;;11.60;99.90;;;;;;5096172;28;20020;-78
2022/08/14 05:03:27;;;;;;;0.40;0.40;;;11.60;99.90;;;;;;5096287;28;20027;-77
2022/08/14 05:05:56;;;;;;;0.65;0.65;;;11.60;99.90;;;;;;5096092;28;20071;-78
2022/08/14 05:08:22;;;;;;;0.38;0.38;;;11.70;99.90;;;;;;5114626;28;20028;-78
2022/08/14 05:10:52;;;;;;;0.77;0.57;;;11.80;99.90;;;;;;5114373;28;20042;-79
2022/08/14 05:13:26;;;;;;;0.75;0.75;;;11.90;99.90;;;;;;5096674;28;20114;-79
2022/08/14 05:15:54;;;;;;;0.70;0.70;;;11.90;99.90;;;;;;5096330;28;20028;-79
2022/08/14 05:18:30;;;;;;;0.60;0.60;;;12.10;99.90;;;;;;5095947;28;20016;-78
2022/08/14 05:20:56;;;;;;;0.45;0.45;;;12.10;99.90;;;;;;5095971;28;20483;-78
2022/08/14 05:23:25;;;;;;;1.08;0.82;;;12.10;99.90;;;;;;5096103;28;20035;-79
2022/08/14 05:26:02;;;;;;;0.98;0.98;;;12.20;99.90;;;;;;5096229;28;20031;-78
2022/08/14 05:28:35;;;;;;;1.10;0.50;;;12.30;99.90;;;;;;5096485;28;20027;-76
2022/08/14 05:31:05;;;;;;;1.48;1.38;;;12.40;99.90;;;;;;5114255;28;20051;-78
2022/08/14 05:33:31;;;;;;;0.50;0.50;;;12.60;99.90;;;;;;5095906;28;20038;-77
2022/08/14 05:36:00;;;;;;;0.88;0.88;;;12.80;99.90;;;;;;5114258;28;20023;-80
2022/08/14 05:38:40;;;;;;;1.38;0.60;;;13.00;99.90;;;;;;5096462;28;20119;-77
2022/08/14 05:41:08;;;;;;;0.85;0.38;;;13.20;99.90;;;;;;5096076;28;20030;-77
2022/08/14 05:43:35;;;;;;;0.30;0.30;;;13.30;99.90;;;;;;5114059;28;20495;-77
2022/08/14 05:46:01;;;;;;;0.50;0.50;;;13.60;99.90;;;;;;5114407;28;20019;-78
2022/08/14 05:48:28;;;;;;;1.38;0.50;;;13.70;99.90;;;;;;5116465;28;20065;-77
2022/08/14 05:50:54;;;;;;;0.40;0.40;;;13.90;99.90;;;;;;5114867;28;20028;-79
2022/08/14 05:53:22;;;;;;;0.95;0.77;;;14.10;99.90;;;;;;5114898;28;20100;-80
2022/08/14 05:55:48;;;;;;;0.68;0.68;;;14.20;99.90;;;;;;5114190;28;20027;-77
2022/08/14 05:58:14;;;;;;;0.30;0.30;;;14.40;99.90;;;;;;5095656;28;20036;-77
2022/08/14 06:00:42;;;;;;;2.58;0.85;;;14.70;99.90;;;;;;5095675;28;20031;-79
2022/08/14 06:03:11;;;;;;;0.95;0.95;;;15.00;99.90;;;;;;5115300;28;20023;-78
2022/08/14 06:05:37;;;;;;;0.30;0.30;;;15.30;99.90;;;;;;5096833;28;20023;-77
2022/08/14 06:08:03;;;;;;;0.30;0.30;;;15.50;99.90;;;;;;5114925;28;20023;-80
2022/08/14 06:10:30;;;;;;;0.75;0.30;;;15.80;99.90;;;;;;5117391;28;20081;-79
2022/08/14 06:12:57;;;;;;;0.40;0.40;;;15.90;99.90;;;;;;5117221;28;20024;-79
2022/08/14 06:15:25;;;;;;;1.20;0.65;;;16.20;99.90;;;;;;5099013;28;20019;-81
2022/08/14 06:17:54;;;;;;;0.98;0.90;;;16.40;99.90;;;;;;5117331;28;20020;-82
2022/08/14 06:20:21;;;;;;;4.22;0.75;;;17.10;99.90;;;;;;5099048;28;20109;-79
2022/08/14 06:22:47;;;;;;;0.80;0.80;;;16.80;99.90;;;;;;5098735;28;20066;-77
2022/08/14 06:25:14;;;;;;;0.40;0.40;;;17.10;99.90;;;;;;5117237;28;20019;-77
2022/08/14 06:27:45;;;;;;;0.60;0.60;;;17.40;99.90;;;;;;5117039;28;20023;-79
2022/08/14 06:30:13;;;;;;;0.40;0.40;;;17.70;99.90;;;;;;5116907;28;20425;-77
2022/08/14 06:32:39;;;;;;;0.40;0.40;;;18.00;99.90;;;;;;5098667;28;20044;-78
2022/08/14 06:35:06;;;;;;;0.50;0.50;;;18.30;99.90;;;;;;5116988;28;20090;-78
2022/08/14 06:37:47;;;;;;;0.30;0.30;;;18.60;99.90;;;;;;5117019;28;20165;-79
2022/08/14 06:40:17;;;;;;;0.65;0.65;;;18.80;99.90;;;;;;5098528;28;20528;-77
2022/08/14 06:42:43;;;;;;;1.20;0.95;;;18.90;99.90;;;;;;5117197;28;20111;-80
2022/08/14 06:45:09;;;;;;;0.40;0.40;;;19.20;99.90;;;;;;5098693;28;20112;-77
2022/08/14 06:47:36;;;;;;;0.50;0.50;;;19.40;99.90;;;;;;5116812;28;20039;-78
2022/08/14 06:50:07;;;;;;;1.50;0.90;;;19.50;99.90;;;;;;5116569;28;20023;-78
2022/08/14 06:52:32;;;;;;;0.30;0.25;;;19.70;99.20;;;;;;5097412;28;20489;-78
2022/08/14 06:54:58;;;;;;;0.40;0.40;;;19.90;98.20;;;;;;5098416;28;20020;-80
2022/08/14 06:57:24;;;;;;;0.47;0.35;;;20.00;98.60;;;;;;5098470;28;20027;-76
2022/08/14 06:59:50;;;;;;;0.65;0.65;;;20.00;98.50;;;;;;5116898;28;20015;-85
2022/08/14 07:07:46;;;;;;;0.30;0.30;;;;;;;;;;5116417;28;20107;-83
2022/08/14 07:10:11;;;;;;;3.65;1.25;;;20.90;95.10;;;;;;5098573;28;20051;-83
2022/08/14 07:12:37;;;;;;;0.47;0.28;;;21.80;90.20;;;;;;5098527;28;20467;-82
2022/08/14 07:15:04;;;;;;;0.50;0.50;;;22.20;84.70;;;;;;5103350;28;20468;-78
2022/08/14 07:17:30;;;;;;;3.42;0.60;;;22.30;84.00;;;;;;5098505;28;20110;-78
2022/08/14 07:19:56;;;;;;;0.40;0.40;;;23.00;82.10;;;;;;5114978;28;20541;-76
2022/08/14 07:22:22;;;;;;;0.82;0.40;;;23.50;77.10;;;;;;5116704;28;20027;-78
2022/08/14 07:24:47;;;;;;;3.50;0.40;;;23.80;70.50;;;;;;5115978;28;20076;-78
2022/08/14 07:27:13;;;;;;;0.60;0.60;;;23.80;69.10;;;;;;5115800;28;20095;-78
2022/08/14 07:29:39;;;;;;;0.80;0.47;;;23.70;68.80;;;;;;5097539;28;20114;-79
2022/08/14 07:32:05;;;;;;;0.55;0.55;;;23.30;69.90;;;;;;5097528;28;20047;-78
2022/08/14 07:34:30;;;;;;;0.30;0.30;;;23.10;70.60;;;;;;5115962;28;20106;-78
2022/08/14 07:36:56;;;;;;;0.15;0.15;;;23.20;70.50;;;;;;5097457;28;20047;-79
2022/08/14 07:39:22;;;;;;;0.30;0.30;;;23.30;69.80;;;;;;5115607;28;20042;-77
2022/08/14 07:41:48;;;;;;;0.68;0.68;;;23.30;70.60;;;;;;5097349;28;20147;-77
2022/08/14 07:44:14;;;;;;;0.32;0.30;;;23.30;70.50;;;;;;5115569;28;20024;-77
2022/08/14 07:46:39;;;;;;;0.50;0.50;;;23.60;70.20;;;;;;5118011;28;20024;-78
2022/08/14 07:49:07;;;;;;;0.52;0.40;;;23.90;69.90;;;;;;5123462;28;20047;-77
2022/08/14 07:51:33;;;;;;;0.55;0.25;;;24.40;67.80;;;;;;5125630;28;20308;-77
2022/08/14 07:53:59;;;;;;;0.20;0.20;;;24.50;67.50;;;;;;5119739;28;20047;-77
2022/08/14 07:56:24;;;;;;;0.30;0.30;;;24.90;66.60;;;;;;5116942;28;20030;-77
2022/08/14 07:58:51;;;;;;;0.65;0.50;;;25.20;64.00;;;;;;5115417;28;20020;-78
2022/08/14 08:01:18;;;;;;;0.60;0.40;;;25.90;62.50;;;;;;5118661;28;20106;-78
2022/08/14 08:03:46;;;;;;;0.60;0.60;;;26.80;61.80;;;;;;5117693;28;20020;-77
2022/08/14 08:06:15;;;;;;;5.47;0.95;;;26.90;58.90;;;;;;5115142;28;20468;-79
2022/08/14 08:08:42;;;;;;;0.52;0.52;;;26.80;59.70;;;;;;5115090;28;20477;-78
2022/08/14 08:11:11;;;;;;;0.20;0.20;;;27.30;59.80;;;;;;5114833;28;20107;-78
2022/08/14 08:13:40;;;;;;;0.32;0.32;;;27.50;57.90;;;;;;5096655;28;20034;-76
2022/08/14 08:16:07;;;;;;;2.50;0.93;;;27.50;57.70;;;;;;5114802;28;20081;-77
2022/08/14 08:18:33;;;;;;;0.30;0.30;;;27.00;57.70;;;;;;5114860;28;20472;-76
2022/08/14 08:20:59;;;;;;;0.45;0.35;;;27.20;57.40;;;;;;5096315;28;20032;-77
2022/08/14 08:23:28;;;;;;;28.88;2.78;;;27.60;56.20;;;;;;5114866;28;20023;-79
2022/08/14 08:25:54;;;;;;;0.30;0.25;;;27.50;56.40;;;;;;5114842;28;20026;-79
2022/08/14 08:28:23;;;;;;;0.30;0.30;;;27.70;57.10;;;;;;5096592;28;20122;-77
2022/08/14 08:30:53;;;;;;;0.20;0.20;;;28.10;55.60;;;;;;5114164;28;20099;-77
2022/08/14 08:33:20;;;;;;;1.23;0.30;;;28.80;54.40;;;;;;5114466;28;20365;-77
2022/08/14 08:35:47;;;;;;;0.30;0.30;;;29.70;53.00;;;;;;5114606;28;20031;-77
2022/08/14 08:38:18;;;;;;;0.40;0.35;;;29.80;52.00;;;;;;5114480;28;20043;-77
2022/08/14 08:40:47;;;;;;;0.40;0.32;;;29.50;52.00;;;;;;5114467;28;20020;-76
2022/08/14 08:43:20;;;;;;;0.35;0.35;;;29.00;52.70;;;;;;5114312;28;20047;-77
2022/08/14 08:45:56;;;;;;;0.52;0.50;;;29.70;51.80;;;;;;5114236;28;20113;-78
2022/08/14 08:48:23;;;;;;;0.30;0.30;;;29.40;52.40;;;;;;5114197;28;20034;-77
2022/08/14 08:50:49;;;;;;;1.05;0.30;;;29.30;52.20;;;;;;5114258;28;20024;-77
2022/08/14 08:53:15;;;;;;;1.27;0.70;;;29.80;53.10;;;;;;5114073;28;20130;-78
2022/08/14 08:55:42;;;;;;;0.43;0.40;;;29.90;51.20;;;;;;5114197;28;20023;-77
2022/08/14 08:58:13;;;;;;;0.65;0.65;;;30.10;50.90;;;;;;5095853;28;20333;-77
2022/08/14 09:00:40;;;;;;;0.20;0.20;;;30.30;51.00;;;;;;5114082;28;20016;-78
2022/08/14 09:03:11;;;;;;;0.32;0.32;;;29.90;51.80;;;;;;5113907;28;20057;-77
2022/08/14 09:05:50;;;;;;;0.40;0.40;;;29.60;51.40;;;;;;5114010;28;20051;-77
2022/08/14 09:08:23;;;;;;;0.30;0.30;;;29.30;52.30;;;;;;5114012;28;20019;-78
2022/08/14 09:10:50;;;;;;;0.70;0.45;;;29.00;53.50;;;;;;5113855;28;20228;-76
2022/08/14 09:13:16;;;;;;;0.20;0.20;;;29.20;51.90;;;;;;5113892;28;20047;-76
2022/08/14 09:15:44;;;;;;;0.88;0.68;;;29.20;53.10;;;;;;5113852;28;20065;-76
2022/08/14 09:18:12;;;;;;;1.42;1.33;;;29.90;51.10;;;;;;5113735;28;20015;-77
2022/08/14 09:20:40;;;;;;;0.57;0.57;;;30.50;51.30;;;;;;5113641;28;20098;-78
2022/08/14 09:23:07;;;;;;;0.32;0.32;;;30.60;50.90;;;;;;5113533;28;20024;-77
2022/08/14 09:25:34;;;;;;;6.05;1.52;;;30.80;50.10;;;;;;5113865;28;20015;-76
2022/08/14 09:28:01;;;;;;;0.22;0.22;;;30.20;50.40;;;;;;5113714;28;20031;-77
2022/08/14 09:30:27;;;;;;;0.20;0.20;;;29.70;51.70;;;;;;5113600;28;20521;-76
2022/08/14 09:33:02;;;;;;;0.43;0.20;;;29.60;51.20;;;;;;5095534;28;20031;-77
2022/08/14 09:35:52;;;;;;;0.30;0.30;;;29.50;50.40;;;;;;5113687;28;20051;-76
2022/08/14 09:38:24;;;;;;;0.80;0.80;;;29.50;50.70;;;;;;5113526;28;20054;-79
2022/08/14 09:41:05;;;;;;;0.40;0.40;;;29.70;50.10;;;;;;5113466;28;20031;-78
2022/08/14 09:43:45;;;;;;;1.42;0.65;;;29.90;50.50;;;;;;5115376;28;20030;-79
2022/08/14 09:46:12;;;;;;;0.40;0.40;;;30.20;50.90;;;;;;5117786;28;20030;-79
2022/08/14 09:48:37;;;;;;;0.57;0.55;;;30.00;50.00;;;;;;5117735;28;20095;-79
2022/08/14 09:51:06;;;;;;;2.42;0.55;;;30.10;50.70;;;;;;5117483;28;20084;-78
2022/08/14 09:53:37;;;;;;;0.90;0.55;;;30.30;50.70;;;;;;5117528;28;20089;-77
2022/08/14 09:56:04;;;;;;;2.85;1.02;;;29.80;51.50;;;;;;5117744;28;20027;-76
2022/08/14 09:58:45;;;;;;;1.05;0.57;;;29.60;52.90;;;;;;5117696;28;20564;-76
2022/08/14 10:01:16;;;;;;;0.40;0.40;;;29.70;53.20;;;;;;5117382;28;20030;-77
2022/08/14 10:03:55;;;;;;;0.28;0.28;;;29.50;53.50;;;;;;5117305;28;20020;-78
2022/08/14 10:06:25;;;;;;;0.30;0.30;;;29.50;54.30;;;;;;5117402;28;20048;-77
2022/08/14 10:09:04;;;;;;;1.75;0.70;;;29.50;54.20;;;;;;5117363;28;20023;-77
2022/08/14 10:11:36;;;;;;;0.70;0.70;;;29.50;54.70;;;;;;5117356;28;20031;-79
2022/08/14 10:14:19;;;;;;;0.70;0.50;;;29.30;55.90;;;;;;5117166;28;20409;-76
2022/08/14 10:16:49;;;;;;;0.80;0.65;;;28.80;57.60;;;;;;5117331;28;20043;-77
2022/08/14 10:19:17;;;;;;;0.80;0.60;;;28.60;57.70;;;;;;5117092;28;20413;-76
2022/08/14 10:22:04;;;;;;;3.55;1.17;;;28.60;58.30;;;;;;5117022;28;20020;-78
2022/08/14 10:24:32;;;;;;;0.80;0.80;;;28.60;58.10;;;;;;5116884;28;20077;-77
2022/08/14 10:27:01;;;;;;;0.70;0.67;;;29.00;58.30;;;;;;5117167;28;20076;-76
2022/08/14 10:29:36;;;;;;;1.63;0.50;;;29.60;57.70;;;;;;5117096;28;20023;-77
2022/08/14 10:32:03;;;;;;;0.73;0.73;;;29.80;57.40;;;;;;5116934;28;20074;-77
2022/08/14 10:34:38;;;;;;;0.80;0.80;;;29.60;56.50;;;;;;5116964;28;20015;-76
2022/08/14 10:37:12;;;;;;;2.40;0.60;;;29.40;56.60;;;;;;5116862;28;20106;-77
2022/08/14 10:39:39;;;;;;;1.75;1.02;;;29.40;57.10;;;;;;5116988;28;20031;-78
2022/08/14 10:42:11;;;;;;;0.38;0.38;;;29.30;57.00;;;;;;5116880;28;20026;-76
2022/08/14 10:44:47;;;;;;;1.52;1.25;;;29.60;57.80;;;;;;5116708;28;20069;-76
2022/08/14 10:47:17;;;;;;;0.55;0.55;;;29.70;56.90;;;;;;5098699;28;20023;-76
2022/08/14 10:49:58;;;;;;;0.68;0.50;;;29.20;55.90;;;;;;5116669;28;20042;-76
2022/08/14 10:52:28;;;;;;;0.80;0.80;;;29.00;57.70;;;;;;5116366;28;20092;-76
2022/08/14 10:55:07;;;;;;;0.63;0.63;;;28.50;58.30;;;;;;5116454;28;20032;-76
2022/08/14 10:57:34;;;;;;;0.43;0.40;;;28.60;58.00;;;;;;5116503;28;20031;-76
2022/08/14 11:00:12;;;;;;;1.58;0.93;;;28.50;58.10;;;;;;5116347;28;20070;-76
2022/08/14 11:02:40;;;;;;;0.80;0.80;;;28.70;58.70;;;;;;5098010;28;20472;-77
2022/08/14 11:05:16;;;;;;;1.02;0.40;;;29.00;58.70;;;;;;5116167;28;20050;-76
2022/08/14 11:08:02;;;;;;;1.08;0.90;;;28.80;58.00;;;;;;5097870;28;20034;-76
2022/08/14 11:10:44;;;;;;;1.52;1.42;;;28.40;58.40;;;;;;5101733;28;20093;-76
2022/08/14 11:13:17;;;;;;;5.97;1.00;;;28.20;58.10;;;;;;5116120;28;20051;-75
2022/08/14 11:15:45;;;;;;;1.05;0.88;;;28.10;59.10;;;;;;5097765;28;20020;-76
2022/08/14 11:18:11;;;;;;;1.10;1.00;;;28.70;57.70;;;;;;5115920;28;20034;-78
2022/08/14 11:20:38;;;;;;;1.13;1.02;;;28.70;58.40;;;;;;5116050;28;20372;-77
2022/08/14 11:23:07;;;;;;;0.80;0.80;;;29.00;58.30;;;;;;5097612;28;20034;-76
2022/08/14 11:25:36;;;;;;;0.85;0.85;;;29.40;58.10;;;;;;5115828;28;20016;-78
2022/08/14 11:28:04;;;;;;;0.50;0.50;;;29.80;58.30;;;;;;5115976;28;20077;-77
2022/08/14 11:30:30;;;;;;;2.67;0.93;;;29.10;57.30;;;;;;5115798;28;20073;-76
2022/08/14 11:32:57;;;;;;;1.13;0.70;;;28.50;57.30;;;;;;5115749;28;20036;-78
2022/08/14 11:35:27;;;;;;;0.57;0.57;;;28.50;58.00;;;;;;5115841;28;20023;-78
2022/08/14 11:37:54;;;;;;;0.80;0.80;;;28.40;57.70;;;;;;5097364;28;20024;-78
2022/08/14 11:40:22;;;;;;;1.38;1.25;;;28.20;57.50;;;;;;5115615;28;20535;-76
2022/08/14 11:42:51;;;;;;;1.48;0.57;;;28.10;57.60;;;;;;5097358;28;20042;-76
2022/08/14 11:45:18;;;;;;;1.33;0.90;;;27.80;57.50;;;;;;5097295;28;20032;-76
2022/08/14 11:47:44;;;;;;;1.30;1.20;;;27.90;57.80;;;;;;5115473;28;20023;-76
2022/08/14 11:50:14;;;;;;;1.83;0.88;;;28.00;57.00;;;;;;5115346;28;20032;-77
2022/08/14 11:52:40;;;;;;;0.52;0.52;;;28.50;56.00;;;;;;5115065;28;20039;-78
2022/08/14 11:55:12;;;;;;;0.95;0.90;;;28.80;55.90;;;;;;5115252;28;20026;-76
2022/08/14 11:57:45;;;;;;;0.95;0.95;;;28.90;53.70;;;;;;5115276;28;20023;-76
2022/08/14 12:00:15;;;;;;;0.73;0.73;;;29.10;52.30;;;;;;5115380;28;20346;-76
2022/08/14 12:02:59;;;;;;;1.95;1.33;;;28.70;48.80;;;;;;5115140;28;20495;-77
2022/08/14 12:05:32;;;;;;;0.38;0.38;;;28.60;49.80;;;;;;5114307;28;20039;-76
2022/08/14 12:08:00;;;;;;;0.15;0.15;;;28.00;50.30;;;;;;5096731;28;20434;-79
2022/08/14 12:10:28;;;;;;;1.20;1.17;;;26.80;49.90;;;;;;5115243;28;20019;-77
2022/08/14 12:12:55;;;;;;;0.40;0.40;;;26.80;50.40;;;;;;5115131;28;20114;-75
2022/08/14 12:15:30;;;;;;;0.20;0.17;;;26.60;50.20;;;;;;5115055;28;20149;-76
2022/08/14 12:17:58;;;;;;;0.15;0.10;;;26.50;50.80;;;;;;5114995;28;20027;-77
2022/08/14 12:20:32;;;;;;;0.40;0.40;;;26.30;50.10;;;;;;5114817;28;20096;-75
2022/08/14 12:23:04;;;;;;;0.20;0.20;;;26.20;50.50;;;;;;5114702;28;20306;-76
2022/08/14 12:25:30;;;;;;;0.57;0.40;;;26.20;51.00;;;;;;5096398;28;20115;-75
2022/08/14 12:27:59;;;;;;;1.65;0.52;;;26.20;51.20;;;;;;5114628;28;20090;-75
2022/08/14 12:30:28;;;;;;;;;;;26.10;51.60;;;;;;5096726;28;20028;-76
2022/08/14 12:32:55;;;;;;;0.30;0.30;;;26.00;52.00;;;;;;5114459;28;19951;-76
2022/08/14 12:35:22;;;;;;;0.75;0.40;;;26.20;52.40;;;;;;5114572;28;20076;-75
2022/08/14 12:37:51;;;;;;;0.30;0.30;;;26.10;53.00;;;;;;5114574;28;20023;-75
2022/08/14 12:40:23;;;;;;;0.57;0.52;;;26.00;53.10;;;;;;5114627;28;20379;-75
2022/08/14 12:42:50;;;;;;;0.52;0.45;;;25.80;54.10;;;;;;5096004;28;20073;-75
2022/08/14 12:45:15;;;;;;;3.03;0.32;;;25.50;54.40;;;;;;5114199;28;20016;-76
2022/08/14 12:47:42;;;;;;;0.35;0.35;;;25.50;55.40;;;;;;5114332;28;20134;-76
2022/08/14 12:50:09;;;;;;;0.32;0.32;;;25.50;55.80;;;;;;5114435;28;20026;-78
2022/08/14 12:52:39;;;;;;;0.60;0.60;;;25.60;55.90;;;;;;5114045;28;20027;-77
2022/08/14 12:55:16;;;;;;;0.50;0.50;;;25.70;55.80;;;;;;5095867;28;20053;-76
2022/08/14 12:57:44;;;;;;;0.75;0.75;;;25.60;56.80;;;;;;5114269;28;20483;-76
2022/08/14 13:00:22;;;;;;;1.95;0.52;;;25.80;56.90;;;;;;5114135;28;20045;-77
2022/08/14 13:02:50;;;;;;;0.65;0.55;;;25.90;57.20;;;;;;5114340;28;20387;-77
2022/08/14 13:05:21;;;;;;;0.50;0.50;;;25.80;57.30;;;;;;5113925;28;20057;-76
2022/08/14 13:07:47;;;;;;;1.23;0.45;;;25.80;57.80;;;;;;5114201;28;20384;-77
2022/08/14 13:10:13;;;;;;;0.45;0.45;;;26.00;58.60;;;;;;5114092;28;20015;-78
2022/08/14 13:12:41;;;;;;;0.60;0.60;;;26.20;57.90;;;;;;5113899;28;20039;-78